sensor_id;sensor_type;location;lat;lon;timestamp;pressure;altitude;pressure_sealevel;temperature;humidity
78170;BME280;67412;49.892;14.490;2023-04-25T00:00:17;96459.72;;;7.51;74.02
78170;BME280;67412;49.892;14.490;2023-04-25T00:02:42;96460.56;;;7.51;74.02
78170;BME280;67412;49.892;14.490;2023-04-25T00:05:08;96458.88;;;7.50;74.28
78170;BME280;67412;49.892;14.490;2023-04-25T00:07:34;96466.63;;;7.46;74.22
78170;BME280;67412;49.892;14.490;2023-04-25T00:10:00;96466.66;;;7.43;74.38
78170;BME280;67412;49.892;14.490;2023-04-25T00:12:25;96462.38;;;7.45;73.86
78170;BME280;67412;49.892;14.490;2023-04-25T00:14:53;96461.66;;;7.38;73.65
78170;BME280;67412;49.892;14.490;2023-04-25T00:17:18;96451.38;;;7.41;74.09
78170;BME280;67412;49.892;14.490;2023-04-25T00:19:44;96455.56;;;7.44;73.74
78170;BME280;67412;49.892;14.490;2023-04-25T00:22:11;96467.63;;;7.36;74.07
78170;BME280;67412;49.892;14.490;2023-04-25T00:24:37;96471.88;;;7.37;73.77
78170;BME280;67412;49.892;14.490;2023-04-25T00:27:02;96460.81;;;7.36;74.18
78170;BME280;67412;49.892;14.490;2023-04-25T00:29:27;96459.97;;;7.36;73.70
78170;BME280;67412;49.892;14.490;2023-04-25T00:31:53;96462.56;;;7.31;73.91
78170;BME280;67412;49.892;14.490;2023-04-25T00:34:18;96465.28;;;7.22;74.07
78170;BME280;67412;49.892;14.490;2023-04-25T00:36:43;96464.44;;;7.21;73.91
78170;BME280;67412;49.892;14.490;2023-04-25T00:39:09;96461.94;;;7.18;74.10
78170;BME280;67412;49.892;14.490;2023-04-25T00:41:34;96464.50;;;7.18;73.76
78170;BME280;67412;49.892;14.490;2023-04-25T00:44:00;96458.53;;;7.19;74.09
78170;BME280;67412;49.892;14.490;2023-04-25T00:46:26;96463.69;;;7.15;74.05
78170;BME280;67412;49.892;14.490;2023-04-25T00:48:51;96460.34;;;7.10;74.54
78170;BME280;67412;49.892;14.490;2023-04-25T00:51:20;96459.63;;;7.02;74.53
78170;BME280;67412;49.892;14.490;2023-04-25T00:53:46;96458.72;;;7.06;74.22
78170;BME280;67412;49.892;14.490;2023-04-25T00:56:13;96450.13;;;7.10;74.35
78170;BME280;67412;49.892;14.490;2023-04-25T00:58:40;96453.53;;;7.10;74.41
78170;BME280;67412;49.892;14.490;2023-04-25T01:01:06;96452.84;;;6.99;74.76
78170;BME280;67412;49.892;14.490;2023-04-25T01:03:33;96444.28;;;7.02;74.87
78170;BME280;67412;49.892;14.490;2023-04-25T01:06:01;96443.56;;;6.94;74.95
78170;BME280;67412;49.892;14.490;2023-04-25T01:08:27;96443.59;;;6.91;74.74
78170;BME280;67412;49.892;14.490;2023-04-25T01:10:52;96438.75;;;6.72;75.44
78170;BME280;67412;49.892;14.490;2023-04-25T01:13:18;96444.06;;;6.59;75.47
78170;BME280;67412;49.892;14.490;2023-04-25T01:15:43;96436.34;;;6.60;75.62
78170;BME280;67412;49.892;14.490;2023-04-25T01:18:09;96443.38;;;6.43;76.10
78170;BME280;67412;49.892;14.490;2023-04-25T01:20:36;96439.00;;;6.53;76.03
78170;BME280;67412;49.892;14.490;2023-04-25T01:23:02;96435.66;;;6.49;76.25
78170;BME280;67412;49.892;14.490;2023-04-25T01:25:29;96434.97;;;6.35;76.32
78170;BME280;67412;49.892;14.490;2023-04-25T01:27:55;96432.56;;;6.26;76.52
78170;BME280;67412;49.892;14.490;2023-04-25T01:30:20;96441.19;;;6.11;76.55
78170;BME280;67412;49.892;14.490;2023-04-25T01:32:47;96434.63;;;5.89;76.70
78170;BME280;67412;49.892;14.490;2023-04-25T01:35:13;96437.31;;;5.75;77.38
78170;BME280;67412;49.892;14.490;2023-04-25T01:37:40;96435.81;;;5.55;77.15
78170;BME280;67412;49.892;14.490;2023-04-25T01:40:06;96433.22;;;5.58;78.38
78170;BME280;67412;49.892;14.490;2023-04-25T01:42:33;96430.78;;;5.44;78.18
78170;BME280;67412;49.892;14.490;2023-04-25T01:44:58;96436.75;;;5.40;78.18
78170;BME280;67412;49.892;14.490;2023-04-25T01:47:24;96441.06;;;5.35;78.83
78170;BME280;67412;49.892;14.490;2023-04-25T01:49:49;96441.19;;;5.20;79.48
78170;BME280;67412;49.892;14.490;2023-04-25T01:52:15;96438.81;;;4.97;78.94
78170;BME280;67412;49.892;14.490;2023-04-25T01:54:41;96444.00;;;4.83;79.12
78170;BME280;67412;49.892;14.490;2023-04-25T01:57:09;96443.94;;;4.88;79.84
78170;BME280;67412;49.892;14.490;2023-04-25T01:59:35;96436.34;;;4.80;78.94
78170;BME280;67412;49.892;14.490;2023-04-25T02:02:00;96443.13;;;4.83;81.18
78170;BME280;67412;49.892;14.490;2023-04-25T02:04:31;96441.41;;;4.90;80.89
78170;BME280;67412;49.892;14.490;2023-04-25T02:06:57;96443.13;;;4.84;80.45
78170;BME280;67412;49.892;14.490;2023-04-25T02:09:22;96431.25;;;4.83;80.63
78170;BME280;67412;49.892;14.490;2023-04-25T02:11:48;96435.38;;;5.01;81.39
78170;BME280;67412;49.892;14.490;2023-04-25T02:14:14;96439.56;;;5.10;81.02
78170;BME280;67412;49.892;14.490;2023-04-25T02:16:39;96440.31;;;5.22;80.56
78170;BME280;67412;49.892;14.490;2023-04-25T02:19:05;96436.13;;;5.15;80.94
78170;BME280;67412;49.892;14.490;2023-04-25T02:21:31;96431.06;;;5.12;80.39
78170;BME280;67412;49.892;14.490;2023-04-25T02:23:56;96434.50;;;5.05;81.10
78170;BME280;67412;49.892;14.490;2023-04-25T02:26:22;96424.41;;;4.92;80.33
78170;BME280;67412;49.892;14.490;2023-04-25T02:28:49;96423.69;;;4.76;81.04
78170;BME280;67412;49.892;14.490;2023-04-25T02:31:14;96424.50;;;4.76;80.83
78170;BME280;67412;49.892;14.490;2023-04-25T02:33:40;96426.25;;;4.67;81.52
78170;BME280;67412;49.892;14.490;2023-04-25T02:36:05;96422.91;;;4.63;81.42
78170;BME280;67412;49.892;14.490;2023-04-25T02:38:31;96416.16;;;4.56;81.97
78170;BME280;67412;49.892;14.490;2023-04-25T02:40:56;96415.22;;;4.71;82.24
78170;BME280;67412;49.892;14.490;2023-04-25T02:43:21;96407.63;;;4.68;82.87
78170;BME280;67412;49.892;14.490;2023-04-25T02:45:47;96410.13;;;4.69;82.55
78170;BME280;67412;49.892;14.490;2023-04-25T02:48:12;96394.84;;;4.74;83.34
78170;BME280;67412;49.892;14.490;2023-04-25T02:50:37;96399.13;;;4.72;81.73
78170;BME280;67412;49.892;14.490;2023-04-25T02:53:03;96400.84;;;4.64;81.37
78170;BME280;67412;49.892;14.490;2023-04-25T02:55:28;96400.97;;;4.39;81.45
78170;BME280;67412;49.892;14.490;2023-04-25T02:57:53;96399.34;;;4.31;81.23
78170;BME280;67412;49.892;14.490;2023-04-25T03:00:21;96390.06;;;4.16;81.36
78170;BME280;67412;49.892;14.490;2023-04-25T03:02:46;96394.38;;;4.04;81.38
78170;BME280;67412;49.892;14.490;2023-04-25T03:05:12;96392.69;;;3.97;82.45
78170;BME280;67412;49.892;14.490;2023-04-25T03:07:37;96391.88;;;3.87;82.66
78170;BME280;67412;49.892;14.490;2023-04-25T03:10:05;96389.34;;;3.84;84.48
78170;BME280;67412;49.892;14.490;2023-04-25T03:12:31;96387.59;;;4.00;82.82
78170;BME280;67412;49.892;14.490;2023-04-25T03:14:56;96394.41;;;3.87;82.62
78170;BME280;67412;49.892;14.490;2023-04-25T03:17:22;96397.78;;;3.90;83.20
78170;BME280;67412;49.892;14.490;2023-04-25T03:19:47;96393.56;;;3.89;82.21
78170;BME280;67412;49.892;14.490;2023-04-25T03:22:13;96401.19;;;3.86;84.49
78170;BME280;67412;49.892;14.490;2023-04-25T03:24:38;96394.38;;;3.98;84.85
78170;BME280;67412;49.892;14.490;2023-04-25T03:27:04;96388.44;;;4.02;84.05
78170;BME280;67412;49.892;14.490;2023-04-25T03:29:29;96392.63;;;4.15;83.85
78170;BME280;67412;49.892;14.490;2023-04-25T03:31:54;96384.97;;;4.21;84.41
78170;BME280;67412;49.892;14.490;2023-04-25T03:34:20;96389.16;;;4.32;84.23
78170;BME280;67412;49.892;14.490;2023-04-25T03:36:46;96387.41;;;4.39;85.44
78170;BME280;67412;49.892;14.490;2023-04-25T03:39:12;96384.00;;;4.49;84.44
78170;BME280;67412;49.892;14.490;2023-04-25T03:41:37;96395.84;;;4.53;84.73
78170;BME280;67412;49.892;14.490;2023-04-25T03:44:02;96389.75;;;4.72;85.21
78170;BME280;67412;49.892;14.490;2023-04-25T03:46:28;96392.31;;;4.75;84.67
78170;BME280;67412;49.892;14.490;2023-04-25T03:48:54;96381.25;;;4.76;84.76
78170;BME280;67412;49.892;14.490;2023-04-25T03:51:19;96384.56;;;4.89;84.64
78170;BME280;67412;49.892;14.490;2023-04-25T03:53:45;96387.94;;;4.88;84.43
78170;BME280;67412;49.892;14.490;2023-04-25T03:56:10;96390.47;;;4.93;84.04
78170;BME280;67412;49.892;14.490;2023-04-25T03:58:35;96387.94;;;4.93;83.72
78170;BME280;67412;49.892;14.490;2023-04-25T04:01:01;96396.41;;;4.93;83.73
78170;BME280;67412;49.892;14.490;2023-04-25T04:03:32;96392.13;;;4.95;84.35
78170;BME280;67412;49.892;14.490;2023-04-25T04:05:57;96389.53;;;5.03;84.63
78170;BME280;67412;49.892;14.490;2023-04-25T04:08:23;96390.34;;;5.12;84.62
78170;BME280;67412;49.892;14.490;2023-04-25T04:10:48;96387.69;;;5.23;84.53
78170;BME280;67412;49.892;14.490;2023-04-25T04:13:13;96391.88;;;5.30;84.31
78170;BME280;67412;49.892;14.490;2023-04-25T04:15:39;96389.28;;;5.36;83.88
78170;BME280;67412;49.892;14.490;2023-04-25T04:18:04;96385.75;;;5.49;82.70
78170;BME280;67412;49.892;14.490;2023-04-25T04:20:29;96379.13;;;5.31;83.32
78170;BME280;67412;49.892;14.490;2023-04-25T04:22:58;96384.28;;;5.22;83.69
78170;BME280;67412;49.892;14.490;2023-04-25T04:25:23;96389.34;;;5.28;83.05
78170;BME280;67412;49.892;14.490;2023-04-25T04:27:50;96390.19;;;5.27;82.96
78170;BME280;67412;49.892;14.490;2023-04-25T04:30:20;96393.47;;;5.42;83.35
78170;BME280;67412;49.892;14.490;2023-04-25T04:32:46;96390.06;;;5.41;83.10
78170;BME280;67412;49.892;14.490;2023-04-25T04:35:13;96392.47;;;5.58;82.78
78170;BME280;67412;49.892;14.490;2023-04-25T04:37:39;96402.00;;;5.39;83.30
78170;BME280;67412;49.892;14.490;2023-04-25T04:40:05;96397.69;;;5.46;83.52
78170;BME280;67412;49.892;14.490;2023-04-25T04:42:31;96396.75;;;5.51;82.96
78170;BME280;67412;49.892;14.490;2023-04-25T04:44:57;96397.56;;;5.58;82.85
78170;BME280;67412;49.892;14.490;2023-04-25T04:47:23;96399.16;;;5.68;83.32
78170;BME280;67412;49.892;14.490;2023-04-25T04:49:49;96399.13;;;5.72;83.37
78170;BME280;67412;49.892;14.490;2023-04-25T04:52:15;96393.91;;;5.83;83.18
78170;BME280;67412;49.892;14.490;2023-04-25T04:54:40;96393.94;;;5.78;83.55
78170;BME280;67412;49.892;14.490;2023-04-25T04:57:05;96393.00;;;5.89;83.29
78170;BME280;67412;49.892;14.490;2023-04-25T04:59:31;96392.13;;;5.94;82.67
78170;BME280;67412;49.892;14.490;2023-04-25T05:01:56;96391.13;;;6.07;82.74
78170;BME280;67412;49.892;14.490;2023-04-25T05:04:21;96393.41;;;6.28;81.59
78170;BME280;67412;49.892;14.490;2023-04-25T05:06:47;96394.88;;;6.46;82.42
78170;BME280;67412;49.892;14.490;2023-04-25T05:09:12;96397.22;;;6.63;81.59
78170;BME280;67412;49.892;14.490;2023-04-25T05:11:37;96396.97;;;6.81;79.83
78170;BME280;67412;49.892;14.490;2023-04-25T05:14:03;96390.84;;;6.91;78.77
78170;BME280;67412;49.892;14.490;2023-04-25T05:16:28;96390.00;;;6.91;78.63
78170;BME280;67412;49.892;14.490;2023-04-25T05:18:53;96386.47;;;6.99;78.70
78170;BME280;67412;49.892;14.490;2023-04-25T05:21:19;96390.78;;;6.94;80.26
78170;BME280;67412;49.892;14.490;2023-04-25T05:23:44;96388.16;;;6.99;79.22
78170;BME280;67412;49.892;14.490;2023-04-25T05:26:09;96388.84;;;7.10;77.63
78170;BME280;67412;49.892;14.490;2023-04-25T05:28:41;96376.09;;;7.10;78.16
78170;BME280;67412;49.892;14.490;2023-04-25T05:31:07;96382.94;;;7.08;77.50
78170;BME280;67412;49.892;14.490;2023-04-25T05:33:32;96387.19;;;7.07;78.33
78170;BME280;67412;49.892;14.490;2023-04-25T05:35:58;96393.09;;;7.11;78.68
78170;BME280;67412;49.892;14.490;2023-04-25T05:38:23;96377.78;;;7.11;78.57
78170;BME280;67412;49.892;14.490;2023-04-25T05:40:48;96382.88;;;7.11;77.63
78170;BME280;67412;49.892;14.490;2023-04-25T05:43:14;96376.91;;;7.12;78.42
78170;BME280;67412;49.892;14.490;2023-04-25T05:45:39;96380.09;;;7.26;77.12
78170;BME280;67412;49.892;14.490;2023-04-25T05:48:05;96378.22;;;7.36;77.58
78170;BME280;67412;49.892;14.490;2023-04-25T05:50:30;96379.84;;;7.40;77.12
78170;BME280;67412;49.892;14.490;2023-04-25T05:52:55;96380.56;;;7.46;77.71
78170;BME280;67412;49.892;14.490;2023-04-25T05:55:21;96383.78;;;7.57;75.92
78170;BME280;67412;49.892;14.490;2023-04-25T05:57:46;96378.78;;;7.51;76.77
78170;BME280;67412;49.892;14.490;2023-04-25T06:00:13;96375.38;;;7.51;76.13
78170;BME280;67412;49.892;14.490;2023-04-25T06:02:40;96383.41;;;7.78;75.25
78170;BME280;67412;49.892;14.490;2023-04-25T06:05:06;96384.09;;;7.88;76.33
78170;BME280;67412;49.892;14.490;2023-04-25T06:07:31;96383.84;;;8.02;75.58
78170;BME280;67412;49.892;14.490;2023-04-25T06:09:57;96390.63;;;8.03;74.38
78170;BME280;67412;49.892;14.490;2023-04-25T06:12:22;96389.06;;;7.96;75.51
78170;BME280;67412;49.892;14.490;2023-04-25T06:14:48;96384.91;;;7.90;74.29
78170;BME280;67412;49.892;14.490;2023-04-25T06:17:13;96385.91;;;7.82;74.29
78170;BME280;67412;49.892;14.490;2023-04-25T06:19:38;96383.50;;;7.75;75.19
78170;BME280;67412;49.892;14.490;2023-04-25T06:22:04;96373.94;;;7.84;74.65
78170;BME280;67412;49.892;14.490;2023-04-25T06:24:29;96379.78;;;7.90;74.70
78170;BME280;67412;49.892;14.490;2023-04-25T06:26:55;96381.47;;;7.91;74.07
78170;BME280;67412;49.892;14.490;2023-04-25T06:29:20;96380.44;;;8.01;73.91
78170;BME280;67412;49.892;14.490;2023-04-25T06:31:46;96376.25;;;7.97;74.22
78170;BME280;67412;49.892;14.490;2023-04-25T06:34:11;96380.34;;;8.06;74.45
78170;BME280;67412;49.892;14.490;2023-04-25T06:36:36;96382.91;;;8.06;74.65
78170;BME280;67412;49.892;14.490;2023-04-25T06:39:02;96380.53;;;7.97;74.73
78170;BME280;67412;49.892;14.490;2023-04-25T06:41:27;96383.09;;;7.95;75.16
78170;BME280;67412;49.892;14.490;2023-04-25T06:43:53;96374.50;;;7.99;74.43
78170;BME280;67412;49.892;14.490;2023-04-25T06:46:18;96377.91;;;8.00;74.47
78170;BME280;67412;49.892;14.490;2023-04-25T06:48:44;96383.84;;;8.00;74.23
78170;BME280;67412;49.892;14.490;2023-04-25T06:51:09;96369.34;;;8.01;73.97
78170;BME280;67412;49.892;14.490;2023-04-25T06:53:35;96373.59;;;8.02;73.89
78170;BME280;67412;49.892;14.490;2023-04-25T06:56:00;96373.78;;;7.93;75.04
78170;BME280;67412;49.892;14.490;2023-04-25T06:58:26;96372.94;;;7.92;74.76
78170;BME280;67412;49.892;14.490;2023-04-25T07:00:51;96376.47;;;7.87;74.69
78170;BME280;67412;49.892;14.490;2023-04-25T07:03:17;96377.19;;;7.93;75.21
78170;BME280;67412;49.892;14.490;2023-04-25T07:05:42;96371.16;;;7.96;75.26
78170;BME280;67412;49.892;14.490;2023-04-25T07:08:07;96367.84;;;7.91;75.49
78170;BME280;67412;49.892;14.490;2023-04-25T07:10:32;96366.16;;;7.90;75.97
78170;BME280;67412;49.892;14.490;2023-04-25T07:12:58;96371.56;;;7.74;76.03
78170;BME280;67412;49.892;14.490;2023-04-25T07:15:23;96367.91;;;7.88;75.60
78170;BME280;67412;49.892;14.490;2023-04-25T07:17:48;96373.06;;;7.86;75.76
78170;BME280;67412;49.892;14.490;2023-04-25T07:20:14;96368.81;;;7.84;76.27
78170;BME280;67412;49.892;14.490;2023-04-25T07:22:39;96370.41;;;7.91;75.69
78170;BME280;67412;49.892;14.490;2023-04-25T07:25:05;96366.09;;;7.93;74.97
78170;BME280;67412;49.892;14.490;2023-04-25T07:27:31;96367.78;;;7.94;75.71
78170;BME280;67412;49.892;14.490;2023-04-25T07:29:56;96371.72;;;8.10;74.82
78170;BME280;67412;49.892;14.490;2023-04-25T07:32:22;96365.34;;;8.32;74.55
78170;BME280;67412;49.892;14.490;2023-04-25T07:34:47;96370.97;;;8.48;73.30
78170;BME280;67412;49.892;14.490;2023-04-25T07:37:13;96377.38;;;8.68;73.21
78170;BME280;67412;49.892;14.490;2023-04-25T07:39:39;96374.97;;;8.98;73.45
78170;BME280;67412;49.892;14.490;2023-04-25T07:42:04;96374.38;;;9.23;72.46
78170;BME280;67412;49.892;14.490;2023-04-25T07:44:33;96364.59;;;9.39;70.29
78170;BME280;67412;49.892;14.490;2023-04-25T07:47:04;96358.91;;;9.60;71.12
78170;BME280;67412;49.892;14.490;2023-04-25T07:49:29;96361.13;;;9.74;69.38
78170;BME280;67412;49.892;14.490;2023-04-25T07:51:54;96362.00;;;9.73;69.29
78170;BME280;67412;49.892;14.490;2023-04-25T07:54:20;96359.78;;;9.92;69.28
78170;BME280;67412;49.892;14.490;2023-04-25T07:56:45;96347.84;;;10.23;67.47
78170;BME280;67412;49.892;14.490;2023-04-25T07:59:10;96355.84;;;10.42;68.00
78170;BME280;67412;49.892;14.490;2023-04-25T08:01:36;96353.00;;;10.51;68.34
78170;BME280;67412;49.892;14.490;2023-04-25T08:04:02;96353.16;;;10.74;67.25
78170;BME280;67412;49.892;14.490;2023-04-25T08:06:27;96352.22;;;10.49;66.09
78170;BME280;67412;49.892;14.490;2023-04-25T08:08:53;96351.78;;;10.02;65.88
78170;BME280;67412;49.892;14.490;2023-04-25T08:11:18;96351.47;;;9.84;66.08
78170;BME280;67412;49.892;14.490;2023-04-25T08:13:43;96343.97;;;10.07;67.30
78170;BME280;67412;49.892;14.490;2023-04-25T08:16:09;96347.09;;;10.20;66.54
78170;BME280;67412;49.892;14.490;2023-04-25T08:18:34;96342.63;;;10.25;65.02
78170;BME280;67412;49.892;14.490;2023-04-25T08:20:59;96344.34;;;10.26;65.11
78170;BME280;67412;49.892;14.490;2023-04-25T08:23:25;96341.63;;;10.30;64.94
78170;BME280;67412;49.892;14.490;2023-04-25T08:25:50;96336.59;;;10.27;64.18
78170;BME280;67412;49.892;14.490;2023-04-25T08:28:15;96340.19;;;10.20;65.81
78170;BME280;67412;49.892;14.490;2023-04-25T08:30:41;96337.38;;;10.29;63.98
78170;BME280;67412;49.892;14.490;2023-04-25T08:33:06;96345.47;;;10.14;64.12
78170;BME280;67412;49.892;14.490;2023-04-25T08:35:33;96346.50;;;10.08;65.42
78170;BME280;67412;49.892;14.490;2023-04-25T08:37:58;96342.25;;;9.77;63.87
78170;BME280;67412;49.892;14.490;2023-04-25T08:40:26;96353.69;;;9.96;65.63
78170;BME280;67412;49.892;14.490;2023-04-25T08:42:56;96352.63;;;10.03;67.13
78170;BME280;67412;49.892;14.490;2023-04-25T08:45:22;96354.84;;;10.16;65.95
78170;BME280;67412;49.892;14.490;2023-04-25T08:47:51;96351.75;;;10.04;66.71
78170;BME280;67412;49.892;14.490;2023-04-25T08:50:18;96354.63;;;9.93;66.40
78170;BME280;67412;49.892;14.490;2023-04-25T08:52:47;96355.78;;;9.82;66.92
78170;BME280;67412;49.892;14.490;2023-04-25T08:55:13;96357.53;;;9.81;67.64
78170;BME280;67412;49.892;14.490;2023-04-25T08:57:41;96360.00;;;9.84;66.09
78170;BME280;67412;49.892;14.490;2023-04-25T09:00:09;96352.97;;;9.91;66.19
78170;BME280;67412;49.892;14.490;2023-04-25T09:02:34;96365.13;;;9.84;65.47
78170;BME280;67412;49.892;14.490;2023-04-25T09:05:02;96363.44;;;9.83;65.94
78170;BME280;67412;49.892;14.490;2023-04-25T09:07:29;96362.38;;;9.90;66.13
78170;BME280;67412;49.892;14.490;2023-04-25T09:09:54;96361.22;;;10.02;65.46
78170;BME280;67412;49.892;14.490;2023-04-25T09:12:20;96363.53;;;10.11;66.56
78170;BME280;67412;49.892;14.490;2023-04-25T09:15:21;96360.91;;;10.12;65.38
78170;BME280;67412;49.892;14.490;2023-04-25T09:17:55;96356.63;;;10.44;66.30
78170;BME280;67412;49.892;14.490;2023-04-25T09:20:21;96362.59;;;10.74;63.64
78170;BME280;67412;49.892;14.490;2023-04-25T09:22:46;96363.66;;;10.66;64.09
78170;BME280;67412;49.892;14.490;2023-04-25T09:25:12;96354.56;;;10.56;61.94
78170;BME280;67412;49.892;14.490;2023-04-25T09:27:50;96350.31;;;10.83;62.70
78170;BME280;67412;49.892;14.490;2023-04-25T09:30:17;96356.22;;;10.87;61.34
78170;BME280;67412;49.892;14.490;2023-04-25T09:32:43;96352.19;;;10.78;62.48
78170;BME280;67412;49.892;14.490;2023-04-25T09:35:08;96351.75;;;11.18;61.63
78170;BME280;67412;49.892;14.490;2023-04-25T09:37:34;96352.72;;;11.15;60.04
78170;BME280;67412;49.892;14.490;2023-04-25T09:40:04;96348.03;;;11.28;60.05
78170;BME280;67412;49.892;14.490;2023-04-25T09:42:31;96345.84;;;11.42;59.25
78170;BME280;67412;49.892;14.490;2023-04-25T09:44:58;96345.38;;;11.56;57.51
78170;BME280;67412;49.892;14.490;2023-04-25T09:47:25;96331.78;;;11.26;57.27
78170;BME280;67412;49.892;14.490;2023-04-25T09:49:52;96343.38;;;11.39;58.09
78170;BME280;67412;49.892;14.490;2023-04-25T09:52:19;96334.34;;;11.52;54.88
78170;BME280;67412;49.892;14.490;2023-04-25T09:54:46;96335.44;;;11.72;54.97
78170;BME280;67412;49.892;14.490;2023-04-25T09:57:22;96340.34;;;12.02;56.48
78170;BME280;67412;49.892;14.490;2023-04-25T09:59:49;96330.00;;;12.50;55.84
78170;BME280;67412;49.892;14.490;2023-04-25T10:02:17;96326.97;;;12.84;54.38
78170;BME280;67412;49.892;14.490;2023-04-25T10:04:48;96319.06;;;12.22;52.21
78170;BME280;67412;49.892;14.490;2023-04-25T10:07:14;96326.88;;;11.96;53.99
78170;BME280;67412;49.892;14.490;2023-04-25T10:09:40;96324.63;;;11.36;54.21
78170;BME280;67412;49.892;14.490;2023-04-25T10:12:06;96325.06;;;11.22;56.16
78170;BME280;67412;49.892;14.490;2023-04-25T10:14:32;96347.03;;;10.78;60.11
78170;BME280;67412;49.892;14.490;2023-04-25T10:16:59;96365.47;;;10.03;63.58
78170;BME280;67412;49.892;14.490;2023-04-25T10:19:25;96379.59;;;8.84;68.96
78170;BME280;67412;49.892;14.490;2023-04-25T10:22:13;96379.22;;;8.20;71.91
78170;BME280;67412;49.892;14.490;2023-04-25T10:24:38;96395.72;;;8.03;72.97
78170;BME280;67412;49.892;14.490;2023-04-25T10:27:04;96372.75;;;8.01;74.32
78170;BME280;67412;49.892;14.490;2023-04-25T10:29:30;96394.06;;;8.02;74.01
78170;BME280;67412;49.892;14.490;2023-04-25T10:31:56;96395.22;;;8.32;75.53
78170;BME280;67412;49.892;14.490;2023-04-25T10:34:38;96385.13;;;8.22;75.68
78170;BME280;67412;49.892;14.490;2023-04-25T10:37:05;96404.31;;;8.02;77.21
78170;BME280;67412;49.892;14.490;2023-04-25T10:39:32;96399.44;;;7.88;77.34
78170;BME280;67412;49.892;14.490;2023-04-25T10:41:58;96408.91;;;7.83;76.48
78170;BME280;67412;49.892;14.490;2023-04-25T10:44:30;96409.91;;;7.74;77.99
78170;BME280;67412;49.892;14.490;2023-04-25T10:46:57;96419.22;;;7.78;77.07
78170;BME280;67412;49.892;14.490;2023-04-25T10:49:34;96424.75;;;8.02;77.27
78170;BME280;67412;49.892;14.490;2023-04-25T10:54:42;96444.06;;;7.70;77.44
78170;BME280;67412;49.892;14.490;2023-04-25T10:57:12;96446.63;;;7.70;78.13
78170;BME280;67412;49.892;14.490;2023-04-25T10:59:50;96452.97;;;7.48;78.97
78170;BME280;67412;49.892;14.490;2023-04-25T11:02:16;96452.94;;;7.50;78.99
78170;BME280;67412;49.892;14.490;2023-04-25T11:04:41;96467.09;;;7.15;79.45
78170;BME280;67412;49.892;14.490;2023-04-25T11:07:39;96470.63;;;7.07;80.71
78170;BME280;67412;49.892;14.490;2023-04-25T11:10:09;96468.06;;;7.07;82.17
78170;BME280;67412;49.892;14.490;2023-04-25T11:12:35;96474.94;;;7.02;83.00
78170;BME280;67412;49.892;14.490;2023-04-25T11:15:06;96475.19;;;6.84;81.97
78170;BME280;67412;49.892;14.490;2023-04-25T11:17:32;96475.44;;;6.65;82.76
78170;BME280;67412;49.892;14.490;2023-04-25T11:19:58;96467.81;;;6.61;82.75
78170;BME280;67412;49.892;14.490;2023-04-25T11:22:24;96471.84;;;6.80;82.87
78170;BME280;67412;49.892;14.490;2023-04-25T11:24:49;96476.84;;;6.86;82.10
78170;BME280;67412;49.892;14.490;2023-04-25T11:27:15;96479.38;;;6.89;83.04
78170;BME280;67412;49.892;14.490;2023-04-25T11:29:41;96480.94;;;6.99;82.98
78170;BME280;67412;49.892;14.490;2023-04-25T11:32:06;96476.72;;;6.95;83.57
78170;BME280;67412;49.892;14.490;2023-04-25T11:34:33;96472.97;;;7.20;83.31
78170;BME280;67412;49.892;14.490;2023-04-25T11:37:02;96471.69;;;6.91;82.86
78170;BME280;67412;49.892;14.490;2023-04-25T11:39:28;96470.69;;;7.02;82.95
78170;BME280;67412;49.892;14.490;2023-04-25T11:41:54;96479.78;;;7.21;82.22
78170;BME280;67412;49.892;14.490;2023-04-25T11:44:21;96470.84;;;7.47;81.36
78170;BME280;67412;49.892;14.490;2023-04-25T11:46:46;96472.28;;;7.64;81.43
78170;BME280;67412;49.892;14.490;2023-04-25T11:49:13;96474.53;;;7.83;80.93
78170;BME280;67412;49.892;14.490;2023-04-25T11:51:46;96475.34;;;7.85;79.40
78170;BME280;67412;49.892;14.490;2023-04-25T11:54:11;96483.13;;;7.78;81.25
78170;BME280;67412;49.892;14.490;2023-04-25T11:56:40;96487.34;;;7.81;81.31
78170;BME280;67412;49.892;14.490;2023-04-25T11:59:06;96494.09;;;7.85;80.00
78170;BME280;67412;49.892;14.490;2023-04-25T12:01:33;96491.47;;;7.88;81.84
78170;BME280;67412;49.892;14.490;2023-04-25T12:04:13;96486.03;;;8.08;78.59
78170;BME280;67412;49.892;14.490;2023-04-25T12:06:39;96489.00;;;7.84;77.70
78170;BME280;67412;49.892;14.490;2023-04-25T12:09:08;96482.94;;;7.89;79.46
78170;BME280;67412;49.892;14.490;2023-04-25T12:11:44;96483.72;;;7.94;78.92
78170;BME280;67412;49.892;14.490;2023-04-25T12:14:31;96480.69;;;8.66;77.56
78170;BME280;67412;49.892;14.490;2023-04-25T12:16:58;96486.34;;;9.20;78.19
78170;BME280;67412;49.892;14.490;2023-04-25T12:19:25;96489.88;;;8.74;74.46
78170;BME280;67412;49.892;14.490;2023-04-25T12:21:51;96487.31;;;8.76;74.09
78170;BME280;67412;49.892;14.490;2023-04-25T12:24:20;96476.50;;;9.02;73.41
78170;BME280;67412;49.892;14.490;2023-04-25T12:26:50;96474.41;;;9.19;73.65
78170;BME280;67412;49.892;14.490;2023-04-25T12:29:22;96485.44;;;9.22;73.21
78170;BME280;67412;49.892;14.490;2023-04-25T12:31:49;96475.50;;;9.81;67.56
78170;BME280;67412;49.892;14.490;2023-04-25T12:34:14;96484.22;;;10.08;71.32
78170;BME280;67412;49.892;14.490;2023-04-25T12:36:40;96477.97;;;9.86;69.37
78170;BME280;67412;49.892;14.490;2023-04-25T12:39:06;96467.22;;;10.04;69.96
78170;BME280;67412;49.892;14.490;2023-04-25T12:41:32;96478.78;;;10.22;68.07
78170;BME280;67412;49.892;14.490;2023-04-25T12:43:57;96464.59;;;10.39;66.18
78170;BME280;67412;49.892;14.490;2023-04-25T12:46:22;96461.72;;;10.81;67.30
78170;BME280;67412;49.892;14.490;2023-04-25T12:48:48;96459.09;;;10.53;67.29
78170;BME280;67412;49.892;14.490;2023-04-25T12:51:14;96456.84;;;10.72;64.95
78170;BME280;67412;49.892;14.490;2023-04-25T12:53:40;96458.97;;;11.14;62.64
78170;BME280;67412;49.892;14.490;2023-04-25T12:56:07;96459.31;;;11.04;62.42